Diamond Orchid — 9VNH4 — position and weather

sailwx.info

Track history (hours):
 
Tides and Currents Weather Stations Pressure Air Temp Water Temp Dewpoint Dewpoint Depression Visibility Wind Speed Wind Dir Waves Ship Positions

Diamond Orchid

Last reported at 2014-Oct-19 05:06 UTC. Time now 2014-Oct-24 21:24 UTC.
Position N 36°51' E 123°37'.

Length 144 m; draft 8.5 m.

Type: Tanker. MMSI: 565789000.

Date/timePositionNaut miles runAvg speedWind from/ knotsBaromVisibWave heightAir tempDewpointWater temp
2014-Oct-19 05:06N 36°51' E 123°37'1014.0
2014-Oct-19 04:21N 37°01' E 123°32'1214.1
2014-Oct-19 03:31N 37°12' E 123°27'1414.3
2014-Oct-19 02:33N 37°25' E 123°20'1313.2
2014-Oct-19 01:33N 37°36' E 123°10'1414.4
2014-Oct-19 00:32N 37°40' E 122°53'1414.0
2014-Oct-18 23:33N 37°42' E 122°35'1413.9
2014-Oct-18 22:33N 37°44' E 122°18'1413.5
2014-Oct-18 21:33N 37°47' E 122°01'1413.8
2014-Oct-18 20:33N 37°50' E 121°44'1414.0
2014-Oct-18 19:33N 37°54' E 121°27'1414.3
2014-Oct-18 18:33N 37°56' E 121°09'3414.6
2014-Oct-18 16:14N 38°01' E 120°27'1113.5
2014-Oct-18 15:24N 37°52' E 120°18'  
2014-Oct-09 12:24N 38°04' E 120°14'1615.3
2014-Oct-09 11:21N 38°20' E 120°15'1415.6
2014-Oct-09 10:28N 38°33' E 120°15'3113.3
2014-Oct-09 08:07N 39°04' E 120°27'2414.0
2014-Oct-09 06:22N 39°22' E 120°47'  
Track history (hours):
 
Tides and Currents Weather Stations Pressure Air Temp Water Temp Dewpoint Dewpoint Depression Visibility Wind Speed Wind Dir Waves Ship Positions

Diamond Orchid

Last reported at 2014-Oct-19 05:06 UTC. Time now 2014-Oct-24 21:24 UTC.
Position N 36°51' E 123°37'.

Length 144 m; draft 8.5 m.

Type: Tanker. MMSI: 565789000.

Date/timePositionNaut miles runAvg speedWind from/ knotsBaromVisibWave heightAir tempDewpointWater temp
2014-Oct-19 05:06N 36°51' E 123°37'1014.0
2014-Oct-19 04:21N 37°01' E 123°32'1214.1
2014-Oct-19 03:31N 37°12' E 123°27'1414.3
2014-Oct-19 02:33N 37°25' E 123°20'1313.2
2014-Oct-19 01:33N 37°36' E 123°10'1414.4
2014-Oct-19 00:32N 37°40' E 122°53'1414.0
2014-Oct-18 23:33N 37°42' E 122°35'1413.9
2014-Oct-18 22:33N 37°44' E 122°18'1413.5
2014-Oct-18 21:33N 37°47' E 122°01'1413.8
2014-Oct-18 20:33N 37°50' E 121°44'1414.0
2014-Oct-18 19:33N 37°54' E 121°27'1414.3
2014-Oct-18 18:33N 37°56' E 121°09'3414.6
2014-Oct-18 16:14N 38°01' E 120°27'1113.5
2014-Oct-18 15:24N 37°52' E 120°18'  
2014-Oct-09 12:24N 38°04' E 120°14'1615.3
2014-Oct-09 11:21N 38°20' E 120°15'1415.6
2014-Oct-09 10:28N 38°33' E 120°15'3113.3
2014-Oct-09 08:07N 39°04' E 120°27'2414.0
2014-Oct-09 06:22N 39°22' E 120°47'  

Dump ship's entire track history